createdAt,value
2024-03-16T00:02:24.081Z,22.42
2024-03-16T00:05:26.736Z,22.41
2024-03-16T00:08:29.417Z,22.40
2024-03-16T00:11:32.789Z,22.39
2024-03-16T00:14:35.583Z,22.39
2024-03-16T00:17:38.357Z,22.39
2024-03-16T00:20:41.716Z,22.38
2024-03-16T00:23:45.150Z,22.38
2024-03-16T00:26:48.953Z,22.36
2024-03-16T00:29:52.158Z,22.36
2024-03-16T00:32:55.628Z,22.37
2024-03-16T00:35:58.259Z,22.36
2024-03-16T00:39:00.976Z,22.34
2024-03-16T00:42:03.685Z,22.32
2024-03-16T00:45:07.054Z,22.31
2024-03-16T00:48:09.731Z,22.32
2024-03-16T00:51:12.406Z,22.31
2024-03-16T00:54:15.297Z,22.31
2024-03-16T00:57:17.952Z,22.30
2024-03-16T01:00:20.677Z,22.29
2024-03-16T01:03:23.473Z,22.29
2024-03-16T01:06:26.294Z,22.27
2024-03-16T01:09:29.181Z,22.27
2024-03-16T01:12:32.008Z,22.26
2024-03-16T01:15:34.757Z,22.26
2024-03-16T01:18:37.468Z,22.25
2024-03-16T01:21:40.193Z,22.25
2024-03-16T01:24:42.911Z,22.23
2024-03-16T01:27:45.624Z,22.23
2024-03-16T01:30:48.367Z,22.24
2024-03-16T01:33:52.184Z,22.22
2024-03-16T01:36:54.953Z,22.21
2024-03-16T01:39:57.731Z,22.21
2024-03-16T01:43:01.015Z,22.20
2024-03-16T01:46:03.807Z,22.19
2024-03-16T01:49:06.548Z,22.19
2024-03-16T01:52:09.375Z,22.17
2024-03-16T01:55:12.085Z,22.17
2024-03-16T01:58:14.965Z,22.18
2024-03-16T02:01:18.523Z,22.18
2024-03-16T02:04:21.312Z,22.16
2024-03-16T02:07:23.960Z,22.15
2024-03-16T02:10:26.708Z,22.14
2024-03-16T02:13:29.428Z,22.15
2024-03-16T02:16:32.116Z,22.14
2024-03-16T02:19:34.791Z,22.14
2024-03-16T02:22:37.505Z,22.13
2024-03-16T02:25:40.605Z,22.13
2024-03-16T02:28:43.095Z,22.13
2024-03-16T02:31:45.776Z,22.12
2024-03-16T02:34:48.519Z,22.10
2024-03-16T02:37:51.191Z,22.11
2024-03-16T02:40:54.054Z,22.09
2024-03-16T02:43:56.778Z,22.08
2024-03-16T02:46:59.437Z,22.09
2024-03-16T02:50:04.636Z,22.08
2024-03-16T02:53:07.374Z,22.10
2024-03-16T02:56:10.062Z,22.08
2024-03-16T02:59:12.849Z,22.07
2024-03-16T03:02:15.517Z,22.08
2024-03-16T03:05:22.178Z,22.07
2024-03-16T03:08:24.981Z,22.07
2024-03-16T03:11:27.686Z,22.07
2024-03-16T03:14:30.428Z,22.06
2024-03-16T03:17:34.028Z,22.05
2024-03-16T03:20:36.763Z,22.05
2024-03-16T03:23:39.479Z,22.05
2024-03-16T03:26:42.223Z,22.06
2024-03-16T03:29:44.964Z,22.04
2024-03-16T03:32:47.687Z,22.04
2024-03-16T03:35:50.410Z,22.04
2024-03-16T03:38:53.078Z,22.03
2024-03-16T03:41:55.760Z,22.04
2024-03-16T03:45:12.256Z,22.03
2024-03-16T03:48:26.276Z,22.02
2024-03-16T03:51:29.243Z,22.03
2024-03-16T03:54:32.288Z,22.02
2024-03-16T03:57:34.789Z,22.04
2024-03-16T04:00:37.515Z,22.02
2024-03-16T04:03:40.237Z,22.01
2024-03-16T04:06:45.835Z,22.00
2024-03-16T04:09:50.116Z,22.00
2024-03-16T04:12:52.888Z,22.00
2024-03-16T04:15:56.555Z,22.00
2024-03-16T04:18:59.547Z,21.99
2024-03-16T04:22:02.245Z,21.99
2024-03-16T04:25:07.937Z,21.97
2024-03-16T04:28:12.845Z,21.98
2024-03-16T04:31:15.612Z,21.98
2024-03-16T04:34:18.597Z,21.99
2024-03-16T04:37:21.291Z,22.08
2024-03-16T04:40:24.250Z,22.25
2024-03-16T04:43:26.913Z,22.33
2024-03-16T04:46:34.111Z,22.28
2024-03-16T04:49:36.803Z,22.17
2024-03-16T04:52:39.476Z,22.00
2024-03-16T04:55:42.423Z,21.79
2024-03-16T04:58:45.104Z,21.62
2024-03-16T05:01:47.933Z,21.72
2024-03-16T05:04:50.658Z,21.93
2024-03-16T05:07:54.035Z,22.14
2024-03-16T05:10:59.796Z,22.35
2024-03-16T05:14:04.027Z,22.55
2024-03-16T05:17:06.665Z,22.69
2024-03-16T05:20:11.541Z,22.78
2024-03-16T05:23:15.215Z,22.85
2024-03-16T05:26:17.896Z,22.90
2024-03-16T05:29:20.570Z,22.92
2024-03-16T05:32:24.206Z,22.93
2024-03-16T05:35:29.255Z,22.94
2024-03-16T05:38:32.063Z,22.94
2024-03-16T05:41:34.747Z,22.92
2024-03-16T05:44:37.490Z,22.89
2024-03-16T05:47:40.256Z,22.86
2024-03-16T05:50:42.948Z,22.82
2024-03-16T05:53:45.612Z,22.80
2024-03-16T05:56:49.421Z,22.79
2024-03-16T05:59:52.948Z,22.77
2024-03-16T06:02:57.055Z,22.75
2024-03-16T06:05:59.884Z,22.73
2024-03-16T06:09:04.168Z,22.73
2024-03-16T06:12:08.705Z,22.79
2024-03-16T06:15:11.890Z,22.89
2024-03-16T06:18:15.390Z,22.95
2024-03-16T06:21:18.069Z,22.98
2024-03-16T06:24:20.736Z,22.99
2024-03-16T06:27:23.579Z,23.01
2024-03-16T06:30:29.200Z,23.00
2024-03-16T06:33:32.381Z,22.98
2024-03-16T06:36:35.272Z,22.97
2024-03-16T06:39:38.105Z,22.95
2024-03-16T06:42:40.850Z,22.93
2024-03-16T06:45:43.819Z,22.95
2024-03-16T06:48:46.535Z,23.04
2024-03-16T06:51:49.224Z,23.14
2024-03-16T06:54:52.141Z,23.23
2024-03-16T06:57:54.865Z,23.28
2024-03-16T07:00:57.656Z,23.31
2024-03-16T07:04:00.565Z,23.32
2024-03-16T07:07:03.581Z,23.31
2024-03-16T07:10:07.640Z,23.28
2024-03-16T07:13:10.920Z,23.26
2024-03-16T07:16:14.775Z,23.24
2024-03-16T07:19:19.323Z,23.22
2024-03-16T07:22:22.165Z,23.21
2024-03-16T07:25:24.882Z,23.18
2024-03-16T07:28:27.633Z,23.16
2024-03-16T07:31:30.315Z,23.12
2024-03-16T07:34:34.623Z,23.09
2024-03-16T07:37:37.283Z,23.06
2024-03-16T07:40:40.074Z,23.04
2024-03-16T07:43:45.163Z,23.01
2024-03-16T07:46:49.347Z,22.98
2024-03-16T07:49:53.232Z,22.94
2024-03-16T07:52:55.888Z,22.92
2024-03-16T07:55:59.275Z,22.89
2024-03-16T07:59:02.114Z,22.87
2024-03-16T08:02:05.185Z,22.84
2024-03-16T08:05:12.101Z,22.83
2024-03-16T08:08:14.946Z,22.87
2024-03-16T08:11:17.644Z,22.97
2024-03-16T08:14:21.625Z,23.10
2024-03-16T08:17:24.320Z,23.22
2024-03-16T08:20:27.035Z,23.30
2024-03-16T08:23:30.606Z,23.34
2024-03-16T08:26:33.356Z,23.37
2024-03-16T08:29:36.366Z,23.37
2024-03-16T08:32:38.845Z,23.38
2024-03-16T08:35:41.549Z,23.37
2024-03-16T08:38:44.216Z,23.36
2024-03-16T08:41:47.041Z,23.35
2024-03-16T08:44:49.774Z,23.31
2024-03-16T08:47:52.507Z,23.29
2024-03-16T08:50:55.269Z,23.26
2024-03-16T08:53:58.016Z,23.23
2024-03-16T08:57:00.726Z,23.21
2024-03-16T09:00:05.522Z,23.20
2024-03-16T09:03:08.306Z,23.18
2024-03-16T09:06:11.125Z,23.16
2024-03-16T09:09:13.804Z,23.16
2024-03-16T09:12:16.581Z,23.13
2024-03-16T09:15:20.741Z,23.12
2024-03-16T09:18:23.426Z,23.10
2024-03-16T09:21:26.422Z,23.08
2024-03-16T09:24:29.245Z,23.06
2024-03-16T09:27:31.949Z,23.02
2024-03-16T09:30:34.961Z,22.99
2024-03-16T09:33:37.502Z,22.98
2024-03-16T09:36:40.740Z,22.98
2024-03-16T09:39:44.279Z,23.06
